createdAt,value
2023-03-10T00:01:27.736Z,91.50
2023-03-10T00:03:58.604Z,91.60
2023-03-10T00:06:29.378Z,91.60
2023-03-10T00:08:57.699Z,91.60
2023-03-10T00:11:25.935Z,91.60
2023-03-10T00:13:54.562Z,91.60
2023-03-10T00:16:25.160Z,91.70
2023-03-10T00:18:55.480Z,91.90
2023-03-10T00:21:30.408Z,92.10
2023-03-10T00:24:00.843Z,92.00
2023-03-10T00:26:29.402Z,91.90
2023-03-10T00:28:59.112Z,91.90
2023-03-10T00:31:28.945Z,91.80
2023-03-10T00:33:58.429Z,91.60
2023-03-10T00:36:29.499Z,91.50
2023-03-10T00:39:01.358Z,91.50
2023-03-10T00:41:31.347Z,91.60
2023-03-10T00:44:01.169Z,91.60
2023-03-10T00:46:30.455Z,91.60
2023-03-10T00:48:58.749Z,91.40
2023-03-10T00:51:27.729Z,91.30
2023-03-10T00:53:56.416Z,91.40
2023-03-10T00:56:28.152Z,91.40
2023-03-10T00:59:01.662Z,91.30
2023-03-10T01:01:40.780Z,91.40
2023-03-10T01:04:14.861Z,91.30
2023-03-10T01:06:44.940Z,91.40
2023-03-10T01:09:13.775Z,91.40
2023-03-10T01:11:41.905Z,91.50
2023-03-10T01:14:13.301Z,91.50
2023-03-10T01:16:41.116Z,91.60
2023-03-10T01:19:10.067Z,91.60
2023-03-10T01:21:39.602Z,91.60
2023-03-10T01:24:10.172Z,91.50
2023-03-10T01:26:37.928Z,91.50
2023-03-10T01:29:07.765Z,91.40
2023-03-10T01:31:36.324Z,91.20
2023-03-10T01:34:05.110Z,91.40
2023-03-10T01:36:33.787Z,91.10
2023-03-10T01:39:03.993Z,91.10
2023-03-10T01:41:34.617Z,90.90
2023-03-10T01:44:05.080Z,90.90
2023-03-10T01:46:40.131Z,91.00
2023-03-10T01:49:41.280Z,91.20
2023-03-10T01:52:32.961Z,91.20
2023-03-10T01:55:12.232Z,91.30
2023-03-10T01:57:58.844Z,91.20
2023-03-10T02:00:29.815Z,90.90
2023-03-10T02:03:40.206Z,90.90
2023-03-10T02:06:14.784Z,90.80
2023-03-10T02:08:48.792Z,90.70
2023-03-10T02:11:17.793Z,90.90
2023-03-10T02:13:46.655Z,91.10
2023-03-10T02:16:16.896Z,91.10
2023-03-10T02:18:47.235Z,91.30
2023-03-10T02:21:42.215Z,91.40
2023-03-10T02:24:30.928Z,91.40
2023-03-10T02:27:02.657Z,91.30
2023-03-10T02:29:52.409Z,91.20
2023-03-10T02:32:26.136Z,90.70
2023-03-10T02:34:55.874Z,90.70
2023-03-10T02:37:32.830Z,90.60
2023-03-10T02:40:01.060Z,90.60
2023-03-10T02:42:34.223Z,90.80
2023-03-10T02:45:05.394Z,90.80
2023-03-10T02:47:34.881Z,90.80
2023-03-10T02:50:03.429Z,90.90
2023-03-10T02:52:36.959Z,91.00
2023-03-10T02:55:05.039Z,91.20
2023-03-10T02:57:35.328Z,91.30
2023-03-10T03:00:05.856Z,91.20
2023-03-10T03:02:34.063Z,91.10
2023-03-10T03:05:02.078Z,90.90
2023-03-10T03:07:33.883Z,90.80
2023-03-10T03:10:03.161Z,90.80
2023-03-10T03:12:31.883Z,90.90
2023-03-10T03:15:00.642Z,91.00
2023-03-10T03:17:28.979Z,91.00
2023-03-10T03:19:58.125Z,90.90
2023-03-10T03:22:27.378Z,90.90
2023-03-10T03:24:56.160Z,90.90
2023-03-10T03:27:24.262Z,91.10
2023-03-10T03:29:52.035Z,91.10
2023-03-10T03:32:20.509Z,91.10
2023-03-10T03:34:49.071Z,91.20
2023-03-10T03:37:18.420Z,91.10
2023-03-10T03:39:46.146Z,91.10
2023-03-10T03:42:15.346Z,91.00
2023-03-10T03:44:49.368Z,91.00
2023-03-10T03:47:17.615Z,90.80
2023-03-10T03:49:46.915Z,90.70
2023-03-10T03:52:16.775Z,90.70
2023-03-10T03:54:45.123Z,90.60
2023-03-10T03:57:13.401Z,90.20
2023-03-10T03:59:41.774Z,90.30
2023-03-10T04:02:12.614Z,90.30
2023-03-10T04:04:41.191Z,90.70
2023-03-10T04:07:09.804Z,90.10
2023-03-10T04:09:40.231Z,90.60
2023-03-10T04:12:10.653Z,90.20
2023-03-10T04:14:40.147Z,90.10
2023-03-10T04:17:10.148Z,89.70
2023-03-10T04:19:39.961Z,90.20
2023-03-10T04:22:11.942Z,89.40
2023-03-10T04:24:41.090Z,89.00
2023-03-10T04:27:11.783Z,89.60
2023-03-10T04:29:41.264Z,89.70
2023-03-10T04:32:10.141Z,88.80
2023-03-10T04:34:40.851Z,88.80
2023-03-10T04:37:09.229Z,89.00
2023-03-10T04:39:37.817Z,88.90
2023-03-10T04:42:06.657Z,89.20
2023-03-10T04:44:36.394Z,89.30
2023-03-10T04:47:07.625Z,89.60
2023-03-10T04:49:40.255Z,89.80
2023-03-10T04:52:12.537Z,90.00
2023-03-10T04:54:40.825Z,90.00
2023-03-10T04:57:09.243Z,90.30
2023-03-10T04:59:38.690Z,90.20
2023-03-10T05:02:07.994Z,90.10
2023-03-10T05:04:38.744Z,90.50
2023-03-10T05:07:08.020Z,90.50
2023-03-10T05:09:39.666Z,90.20
2023-03-10T05:12:09.963Z,90.50
2023-03-10T05:14:39.208Z,90.50
2023-03-10T05:17:09.253Z,90.60
2023-03-10T05:19:38.221Z,90.40
2023-03-10T05:22:08.026Z,90.50
2023-03-10T05:24:37.687Z,90.30
2023-03-10T05:27:06.058Z,90.30
2023-03-10T05:29:34.701Z,90.10
2023-03-10T05:32:10.018Z,90.40
2023-03-10T05:34:41.234Z,90.30
2023-03-10T05:37:13.642Z,90.40
2023-03-10T05:39:41.517Z,90.10
2023-03-10T05:42:12.847Z,90.40
2023-03-10T05:44:42.492Z,90.40
2023-03-10T05:47:11.024Z,90.00
2023-03-10T05:49:40.948Z,90.00
2023-03-10T05:52:09.855Z,90.20
2023-03-10T05:54:39.415Z,90.00
2023-03-10T05:57:08.192Z,90.10
2023-03-10T05:59:38.207Z,89.90
2023-03-10T06:02:06.452Z,90.10
2023-03-10T06:04:34.279Z,90.00
2023-03-10T06:07:02.679Z,90.30
2023-03-10T06:09:32.768Z,90.30
2023-03-10T06:12:01.726Z,90.30
2023-03-10T06:14:29.363Z,90.40
2023-03-10T06:16:57.626Z,90.50
2023-03-10T06:19:26.321Z,90.70
2023-03-10T06:21:54.489Z,90.50
2023-03-10T06:24:23.499Z,90.10
2023-03-10T06:26:51.551Z,89.90
2023-03-10T06:29:19.971Z,90.00
2023-03-10T06:31:48.730Z,89.90
2023-03-10T06:34:16.508Z,90.10
2023-03-10T06:36:44.613Z,90.00
2023-03-10T06:39:12.758Z,90.00
2023-03-10T06:41:41.895Z,89.40
2023-03-10T06:44:09.745Z,89.70
2023-03-10T06:46:39.170Z,89.70
2023-03-10T06:49:07.113Z,89.90
2023-03-10T06:51:35.491Z,89.70
2023-03-10T06:54:03.412Z,89.70
2023-03-10T06:56:33.885Z,89.80
2023-03-10T06:59:03.032Z,89.60
2023-03-10T07:01:33.872Z,89.70
2023-03-10T07:04:02.519Z,89.60
2023-03-10T07:06:31.584Z,89.00
2023-03-10T07:08:59.508Z,89.30
2023-03-10T07:11:30.510Z,89.80
2023-03-10T07:13:58.405Z,89.90
2023-03-10T07:16:26.980Z,89.80
2023-03-10T07:18:58.192Z,89.80
2023-03-10T07:21:27.589Z,90.00
2023-03-10T07:23:55.300Z,90.10
2023-03-10T07:26:23.483Z,89.60
2023-03-10T07:28:51.498Z,89.80
2023-03-10T07:31:21.103Z,89.90
2023-03-10T07:33:51.794Z,90.10
2023-03-10T07:36:21.072Z,90.00
2023-03-10T07:38:49.218Z,89.60
2023-03-10T07:41:21.374Z,89.60
2023-03-10T07:43:53.488Z,89.60
2023-03-10T07:46:22.736Z,89.90
2023-03-10T07:48:53.016Z,89.50
2023-03-10T07:51:23.049Z,89.20
2023-03-10T07:53:51.327Z,89.40
2023-03-10T07:56:21.292Z,89.40
2023-03-10T07:58:51.876Z,89.70
2023-03-10T08:01:23.596Z,89.50
2023-03-10T08:03:55.347Z,88.90
2023-03-10T08:06:28.065Z,89.30
2023-03-10T08:08:58.776Z,88.60
2023-03-10T08:11:28.954Z,88.60
2023-03-10T08:13:57.975Z,89.60
2023-03-10T08:16:26.832Z,89.80
2023-03-10T08:18:57.116Z,89.30
2023-03-10T08:21:25.923Z,88.10
2023-03-10T08:23:55.013Z,89.00
2023-03-10T08:26:23.190Z,87.80
2023-03-10T08:28:51.936Z,88.10
2023-03-10T08:31:22.613Z,88.40
2023-03-10T08:33:54.081Z,87.70
2023-03-10T08:36:26.774Z,87.30
2023-03-10T08:38:56.107Z,87.30
2023-03-10T08:41:32.045Z,86.00
2023-03-10T08:44:01.824Z,87.20
2023-03-10T08:46:32.268Z,86.20
2023-03-10T08:49:01.510Z,86.80
2023-03-10T08:51:30.477Z,86.80
2023-03-10T08:53:58.825Z,86.30
2023-03-10T08:56:30.056Z,88.40
2023-03-10T08:59:00.903Z,84.30
2023-03-10T09:01:33.316Z,81.30
2023-03-10T09:04:03.439Z,84.70
2023-03-10T09:06:32.798Z,84.80
2023-03-10T09:09:02.123Z,82.90
2023-03-10T09:11:33.628Z,82.00
2023-03-10T09:14:03.122Z,81.90
2023-03-10T09:16:34.190Z,82.40
2023-03-10T09:19:02.894Z,84.40
2023-03-10T09:21:33.711Z,83.10
2023-03-10T09:24:02.212Z,80.10
2023-03-10T09:26:31.517Z,80.10
2023-03-10T09:29:00.631Z,81.90
2023-03-10T09:31:34.421Z,80.20
2023-03-10T09:34:03.193Z,80.00
2023-03-10T09:36:31.671Z,80.80
2023-03-10T09:39:01.991Z,82.70
2023-03-10T09:41:38.242Z,81.40
2023-03-10T09:44:38.736Z,78.20
2023-03-10T09:47:36.610Z,79.90
2023-03-10T09:50:30.376Z,79.00
2023-03-10T09:53:17.645Z,80.40
2023-03-10T09:55:48.419Z,79.30
2023-03-10T09:59:13.024Z,79.00
2023-03-10T10:01:44.607Z,79.10
2023-03-10T10:04:35.886Z,77.80
2023-03-10T10:07:14.594Z,69.10
2023-03-10T10:09:59.629Z,71.10
2023-03-10T10:12:27.938Z,68.30
2023-03-10T10:15:02.873Z,71.40
2023-03-10T10:17:56.725Z,71.70
2023-03-10T10:20:49.089Z,71.80
2023-03-10T10:23:28.723Z,71.20
2023-03-10T10:26:16.914Z,72.80
2023-03-10T10:28:57.956Z,73.10
2023-03-10T10:31:34.328Z,73.10
2023-03-10T10:34:06.620Z,72.20
2023-03-10T10:36:52.514Z,74.50
2023-03-10T10:39:33.363Z,74.30
2023-03-10T10:42:51.745Z,75.00
2023-03-10T10:45:37.807Z,75.80
2023-03-10T10:48:06.670Z,77.10
2023-03-10T10:50:36.318Z,74.90
2023-03-10T10:53:19.531Z,74.10
2023-03-10T10:55:59.545Z,72.50
2023-03-10T10:58:40.010Z,69.60
2023-03-10T11:01:15.933Z,70.60
2023-03-10T11:03:50.892Z,70.70
2023-03-10T11:06:38.340Z,71.30
2023-03-10T11:09:21.298Z,70.00
2023-03-10T11:12:21.676Z,70.00
2023-03-10T11:15:28.490Z,69.90
2023-03-10T11:18:10.544Z,69.00
2023-03-10T11:20:45.427Z,70.80
2023-03-10T11:23:15.854Z,70.70
2023-03-10T11:26:10.575Z,70.60
2023-03-10T11:28:54.451Z,70.40
2023-03-10T11:32:04.116Z,70.80
2023-03-10T11:34:44.975Z,71.20
2023-03-10T11:37:30.277Z,70.80
2023-03-10T11:39:59.414Z,71.90
2023-03-10T11:42:44.840Z,71.80
2023-03-10T11:45:54.767Z,71.00
2023-03-10T11:48:47.816Z,70.80
2023-03-10T11:51:32.449Z,70.70
2023-03-10T11:54:05.203Z,69.70
2023-03-10T11:56:33.128Z,69.40
2023-03-10T11:59:07.523Z,70.30
2023-03-10T12:01:39.297Z,69.90
2023-03-10T12:04:42.153Z,69.20
2023-03-10T12:07:34.151Z,69.60
2023-03-10T12:10:13.701Z,67.90
2023-03-10T12:12:50.421Z,68.00
2023-03-10T12:15:26.025Z,68.70
2023-03-10T12:17:55.231Z,67.10
2023-03-10T12:20:34.980Z,69.40
2023-03-10T12:23:12.060Z,68.50
2023-03-10T12:25:44.319Z,67.80
2023-03-10T12:28:25.671Z,65.70
2023-03-10T12:31:04.421Z,66.20
2023-03-10T12:33:37.955Z,65.80
2023-03-10T12:36:32.972Z,66.40
2023-03-10T12:39:25.599Z,65.00
2023-03-10T12:41:58.407Z,64.10
2023-03-10T12:44:50.099Z,65.60
2023-03-10T12:48:01.753Z,64.70
2023-03-10T12:50:34.353Z,64.70
2023-03-10T12:53:34.277Z,65.10
2023-03-10T12:56:14.258Z,66.30
2023-03-10T12:59:17.697Z,66.60
2023-03-10T13:01:55.925Z,66.80
2023-03-10T13:04:29.268Z,66.20
2023-03-10T13:07:04.024Z,64.80
2023-03-10T13:09:42.856Z,63.10
2023-03-10T13:12:20.823Z,62.50
2023-03-10T13:14:55.071Z,61.90
2023-03-10T13:17:25.996Z,62.00
2023-03-10T13:20:06.092Z,62.40
2023-03-10T13:22:34.878Z,63.30
2023-03-10T13:25:09.805Z,62.90
2023-03-10T13:27:37.838Z,63.30
2023-03-10T13:30:29.486Z,63.40
2023-03-10T13:33:02.732Z,64.00
2023-03-10T13:35:37.367Z,63.70
2023-03-10T13:38:28.136Z,62.70
2023-03-10T13:41:04.039Z,63.00
2023-03-10T13:43:58.443Z,62.20
2023-03-10T13:46:31.237Z,61.60
2023-03-10T13:49:07.287Z,62.10
2023-03-10T13:51:38.598Z,62.70
2023-03-10T13:54:18.198Z,61.50
2023-03-10T13:56:54.511Z,62.50
2023-03-10T13:59:26.379Z,62.30
2023-03-10T14:01:59.831Z,62.10
2023-03-10T14:04:42.536Z,61.80
2023-03-10T14:07:18.696Z,61.70
2023-03-10T14:09:49.680Z,62.20
2023-03-10T14:12:35.773Z,62.50
2023-03-10T14:15:22.007Z,62.20
2023-03-10T14:18:06.802Z,62.70
2023-03-10T14:20:37.705Z,62.70
2023-03-10T14:23:41.622Z,63.10
2023-03-10T14:26:17.234Z,63.10
2023-03-10T14:28:45.947Z,62.50
2023-03-10T14:31:23.203Z,62.40
2023-03-10T14:33:52.146Z,62.60
2023-03-10T14:36:19.817Z,62.70
2023-03-10T14:38:50.614Z,63.20
2023-03-10T14:41:22.804Z,63.60
2023-03-10T14:43:52.767Z,63.90
2023-03-10T14:46:20.709Z,64.20
2023-03-10T14:48:51.058Z,64.50
2023-03-10T14:51:34.553Z,64.60
2023-03-10T14:54:04.199Z,64.60
2023-03-10T14:56:33.772Z,64.40
2023-03-10T14:59:02.861Z,63.80
2023-03-10T15:01:31.341Z,64.40
2023-03-10T15:04:00.175Z,64.70
2023-03-10T15:06:28.146Z,64.60
2023-03-10T15:09:00.536Z,64.90
2023-03-10T15:11:36.949Z,65.10
2023-03-10T15:14:16.494Z,65.10
2023-03-10T15:16:44.727Z,65.30
2023-03-10T15:19:25.269Z,65.50
2023-03-10T15:21:54.339Z,65.50
2023-03-10T15:24:25.136Z,65.20
2023-03-10T15:26:55.515Z,65.50
2023-03-10T15:29:24.072Z,65.70
2023-03-10T15:31:53.634Z,65.90
2023-03-10T15:34:23.028Z,66.10
2023-03-10T15:36:51.804Z,66.20
2023-03-10T15:39:31.188Z,66.20
2023-03-10T15:42:00.844Z,66.40
2023-03-10T15:44:29.333Z,66.30
2023-03-10T15:46:59.981Z,66.50
2023-03-10T15:49:29.848Z,66.40
2023-03-10T15:51:58.708Z,66.60
2023-03-10T15:54:27.129Z,66.60
2023-03-10T15:56:55.796Z,66.70
2023-03-10T15:59:28.326Z,66.70
2023-03-10T16:01:58.954Z,66.90
2023-03-10T16:04:28.517Z,67.10
2023-03-10T16:06:57.590Z,67.10
2023-03-10T16:09:26.868Z,67.20
2023-03-10T16:11:54.927Z,67.10
2023-03-10T16:14:26.594Z,66.90
2023-03-10T16:16:55.858Z,67.00
2023-03-10T16:19:24.141Z,66.90
2023-03-10T16:21:55.706Z,67.10
2023-03-10T16:24:27.245Z,67.40
2023-03-10T16:26:55.453Z,67.70
2023-03-10T16:29:24.821Z,68.10
2023-03-10T16:31:54.425Z,69.30
2023-03-10T16:34:22.977Z,70.00
2023-03-10T16:36:53.805Z,71.20
2023-03-10T16:39:24.710Z,72.20
2023-03-10T16:41:52.960Z,72.90
2023-03-10T16:44:26.130Z,73.40
2023-03-10T16:46:54.314Z,74.30
2023-03-10T16:49:23.478Z,75.00
2023-03-10T16:51:53.143Z,75.30
2023-03-10T16:54:24.098Z,75.60
2023-03-10T16:56:57.441Z,75.40
2023-03-10T16:59:26.066Z,75.80
2023-03-10T17:01:55.244Z,75.50
2023-03-10T17:04:24.060Z,75.30
2023-03-10T17:06:53.196Z,75.30
2023-03-10T17:09:22.128Z,75.50
2023-03-10T17:11:55.296Z,75.60
2023-03-10T17:14:24.994Z,75.50
2023-03-10T17:17:01.200Z,75.50
2023-03-10T17:19:30.469Z,75.70
2023-03-10T17:22:01.020Z,76.00
2023-03-10T17:24:31.134Z,76.40
2023-03-10T17:26:59.328Z,76.60
2023-03-10T17:29:29.866Z,77.30
2023-03-10T17:31:58.279Z,77.30
2023-03-10T17:34:31.482Z,77.50
2023-03-10T17:37:01.282Z,77.10
2023-03-10T17:39:34.371Z,76.90
2023-03-10T17:42:09.177Z,76.80
2023-03-10T17:44:46.516Z,77.10
2023-03-10T17:47:19.498Z,76.70
2023-03-10T17:49:48.967Z,76.90
2023-03-10T17:52:17.248Z,77.00
2023-03-10T17:54:46.373Z,77.20
2023-03-10T17:57:16.955Z,77.20
2023-03-10T17:59:49.731Z,77.20
2023-03-10T18:02:18.436Z,77.30
2023-03-10T18:04:49.947Z,77.30
2023-03-10T18:07:22.331Z,77.40
2023-03-10T18:09:54.658Z,77.50
2023-03-10T18:12:24.532Z,77.60
2023-03-10T18:14:54.726Z,77.70
2023-03-10T18:17:23.382Z,77.60
2023-03-10T18:19:53.443Z,77.60
2023-03-10T18:22:23.496Z,77.60
2023-03-10T18:24:58.441Z,77.60
2023-03-10T18:27:28.509Z,77.80
2023-03-10T18:29:59.206Z,77.80
2023-03-10T18:32:31.299Z,77.80
2023-03-10T18:35:04.425Z,77.90
2023-03-10T18:37:34.138Z,78.10
2023-03-10T18:40:07.399Z,78.10
2023-03-10T18:42:38.373Z,78.10
2023-03-10T18:45:09.514Z,78.10
2023-03-10T18:47:38.682Z,78.20
2023-03-10T18:50:09.907Z,77.90
2023-03-10T18:52:38.890Z,78.00
2023-03-10T18:55:11.262Z,78.10
2023-03-10T18:57:40.660Z,78.10
2023-03-10T19:00:16.084Z,78.40
2023-03-10T19:02:48.001Z,78.40
2023-03-10T19:05:18.616Z,78.40
2023-03-10T19:07:53.506Z,78.40
2023-03-10T19:10:24.601Z,78.40
2023-03-10T19:12:54.266Z,78.40
2023-03-10T19:15:24.591Z,78.50
2023-03-10T19:17:54.301Z,78.50
2023-03-10T19:20:24.816Z,78.60
2023-03-10T19:22:55.239Z,78.60
2023-03-10T19:25:25.081Z,78.60
2023-03-10T19:27:55.386Z,78.60
2023-03-10T19:30:26.405Z,78.60
2023-03-10T19:32:56.600Z,78.60
2023-03-10T19:38:19.738Z,79.10
2023-03-10T19:40:56.850Z,79.00
2023-03-10T19:43:27.356Z,79.00
2023-03-10T19:46:07.466Z,79.00
2023-03-10T19:48:37.086Z,79.20
2023-03-10T19:51:09.853Z,79.30
2023-03-10T19:53:41.604Z,79.50
2023-03-10T19:56:12.082Z,79.50
2023-03-10T19:58:41.567Z,79.40
2023-03-10T20:01:28.541Z,79.30
2023-03-10T20:04:03.429Z,79.30
2023-03-10T20:06:33.495Z,79.20
2023-03-10T20:09:05.668Z,79.20
2023-03-10T20:11:36.123Z,79.20
2023-03-10T20:14:05.602Z,79.30
2023-03-10T20:16:35.700Z,79.30
2023-03-10T20:19:07.173Z,79.30
2023-03-10T20:21:37.815Z,79.40
2023-03-10T20:24:06.379Z,79.40
2023-03-10T20:26:38.592Z,79.40
2023-03-10T20:29:07.561Z,79.40
2023-03-10T20:31:39.033Z,79.40
2023-03-10T20:34:10.199Z,79.40
2023-03-10T20:36:41.194Z,79.40
2023-03-10T20:39:10.272Z,79.40
2023-03-10T20:41:41.911Z,79.50
2023-03-10T20:44:14.954Z,79.40
2023-03-10T20:46:47.580Z,79.40
2023-03-10T20:49:22.611Z,79.40
2023-03-10T20:51:53.211Z,79.50
2023-03-10T20:54:27.317Z,79.60
2023-03-10T20:56:58.661Z,79.50
2023-03-10T20:59:28.470Z,79.60
2023-03-10T21:01:59.176Z,79.60
2023-03-10T21:04:28.876Z,79.60
2023-03-10T21:07:00.398Z,79.70
2023-03-10T21:09:30.257Z,79.70
2023-03-10T21:12:02.751Z,79.70
2023-03-10T21:14:33.818Z,79.70
2023-03-10T21:17:05.476Z,79.90
2023-03-10T21:19:34.535Z,80.00
2023-03-10T21:22:09.371Z,80.10
2023-03-10T21:24:38.365Z,80.20
2023-03-10T21:27:08.500Z,80.40
2023-03-10T21:29:39.310Z,80.30
2023-03-10T21:32:07.990Z,80.30
2023-03-10T21:34:36.659Z,80.40
2023-03-10T21:37:09.368Z,80.50
2023-03-10T21:39:40.190Z,80.50
2023-03-10T21:42:08.933Z,80.50
2023-03-10T21:44:37.207Z,80.50
2023-03-10T21:47:11.524Z,80.70
2023-03-10T21:49:39.482Z,80.70
2023-03-10T21:52:09.184Z,80.80
2023-03-10T21:54:37.102Z,80.90
2023-03-10T21:57:05.309Z,81.00
2023-03-10T21:59:33.071Z,81.00
2023-03-10T22:02:02.027Z,81.10
2023-03-10T22:04:30.068Z,81.20
2023-03-10T22:06:58.403Z,81.40
2023-03-10T22:09:26.376Z,81.40
2023-03-10T22:11:55.572Z,81.40
2023-03-10T22:14:24.515Z,81.50
2023-03-10T22:16:53.727Z,81.50
2023-03-10T22:19:21.600Z,81.50
2023-03-10T22:21:49.832Z,81.80
2023-03-10T22:24:18.219Z,81.70
2023-03-10T22:26:46.463Z,81.80
2023-03-10T22:29:14.293Z,81.80
2023-03-10T22:31:43.691Z,81.90
2023-03-10T22:34:11.978Z,82.10
2023-03-10T22:36:40.067Z,82.20
2023-03-10T22:39:07.965Z,82.20
2023-03-10T22:41:38.465Z,82.30
2023-03-10T22:44:06.653Z,82.40
2023-03-10T22:46:34.873Z,82.50
2023-03-10T22:49:05.104Z,82.40
2023-03-10T22:51:33.573Z,82.50
2023-03-10T22:54:02.619Z,82.60
2023-03-10T22:56:30.763Z,82.60
2023-03-10T22:59:04.078Z,82.70
2023-03-10T23:01:32.618Z,82.60
2023-03-10T23:04:00.558Z,82.70
2023-03-10T23:06:29.340Z,82.70
2023-03-10T23:08:57.232Z,82.70
2023-03-10T23:11:25.844Z,82.60
2023-03-10T23:13:55.016Z,82.60
2023-03-10T23:16:24.164Z,82.70
2023-03-10T23:18:52.488Z,82.80
2023-03-10T23:21:20.591Z,82.80
2023-03-10T23:23:49.283Z,82.90
2023-03-10T23:26:18.088Z,83.10
2023-03-10T23:28:48.096Z,83.30
2023-03-10T23:31:17.621Z,83.20
2023-03-10T23:33:46.612Z,83.10
2023-03-10T23:36:14.725Z,83.00
2023-03-10T23:38:42.881Z,83.20
2023-03-10T23:41:11.664Z,83.30
2023-03-10T23:43:39.456Z,83.20
2023-03-10T23:46:08.728Z,83.20
2023-03-10T23:48:37.072Z,83.10
2023-03-10T23:51:10.531Z,83.00
2023-03-10T23:53:38.230Z,82.90
2023-03-10T23:56:06.630Z,82.80
2023-03-10T23:58:34.725Z,82.90
